sensor_id;sensor_type;location;lat;lon;timestamp;temperature;humidity
7564;DHT22;3823;53.586;10.040;2024-03-23T00:54:22;8.40;1.00
7564;DHT22;3823;53.586;10.040;2024-03-23T00:56:47;8.40;1.00
7564;DHT22;3823;53.586;10.040;2024-03-23T00:59:13;8.40;1.00
7564;DHT22;3823;53.586;10.040;2024-03-23T01:01:39;8.40;1.00
7564;DHT22;3823;53.586;10.040;2024-03-23T01:04:05;8.40;1.00
7564;DHT22;3823;53.586;10.040;2024-03-23T01:06:30;8.40;1.00
7564;DHT22;3823;53.586;10.040;2024-03-23T01:08:56;8.40;1.00
7564;DHT22;3823;53.586;10.040;2024-03-23T01:11:21;8.30;1.00
7564;DHT22;3823;53.586;10.040;2024-03-23T01:13:47;8.30;1.00
7564;DHT22;3823;53.586;10.040;2024-03-23T01:16:13;8.30;1.00
7564;DHT22;3823;53.586;10.040;2024-03-23T01:18:38;8.30;1.00
7564;DHT22;3823;53.586;10.040;2024-03-23T01:21:04;8.30;1.00
7564;DHT22;3823;53.586;10.040;2024-03-23T01:23:29;8.30;1.00
7564;DHT22;3823;53.586;10.040;2024-03-23T01:25:55;8.20;1.00
7564;DHT22;3823;53.586;10.040;2024-03-23T01:28:21;8.20;1.00
7564;DHT22;3823;53.586;10.040;2024-03-23T01:30:47;8.20;1.00
7564;DHT22;3823;53.586;10.040;2024-03-23T01:33:13;8.20;1.00
7564;DHT22;3823;53.586;10.040;2024-03-23T01:35:39;8.20;1.00
7564;DHT22;3823;53.586;10.040;2024-03-23T01:38:05;8.20;1.00
7564;DHT22;3823;53.586;10.040;2024-03-23T01:40:31;8.10;1.00
7564;DHT22;3823;53.586;10.040;2024-03-23T01:43:07;8.10;1.00
7564;DHT22;3823;53.586;10.040;2024-03-23T01:45:36;8.10;1.00
7564;DHT22;3823;53.586;10.040;2024-03-23T01:48:02;8.10;1.00
7564;DHT22;3823;53.586;10.040;2024-03-23T01:50:28;8.00;1.00
7564;DHT22;3823;53.586;10.040;2024-03-23T01:52:56;8.00;1.00
7564;DHT22;3823;53.586;10.040;2024-03-23T01:55:23;8.00;1.00
7564;DHT22;3823;53.586;10.040;2024-03-23T01:57:48;8.00;1.00
7564;DHT22;3823;53.586;10.040;2024-03-23T02:00:14;8.00;1.00
7564;DHT22;3823;53.586;10.040;2024-03-23T02:02:46;8.00;1.00
7564;DHT22;3823;53.586;10.040;2024-03-23T02:05:12;8.10;1.00
7564;DHT22;3823;53.586;10.040;2024-03-23T02:07:42;8.10;1.00
7564;DHT22;3823;53.586;10.040;2024-03-23T02:10:11;8.00;1.00
7564;DHT22;3823;53.586;10.040;2024-03-23T02:12:40;8.00;1.00
7564;DHT22;3823;53.586;10.040;2024-03-23T02:15:06;8.10;1.00
7564;DHT22;3823;53.586;10.040;2024-03-23T02:17:33;8.00;1.00
7564;DHT22;3823;53.586;10.040;2024-03-23T02:19:59;7.90;1.00
7564;DHT22;3823;53.586;10.040;2024-03-23T02:22:33;7.90;1.00
7564;DHT22;3823;53.586;10.040;2024-03-23T02:24:59;7.90;1.00
7564;DHT22;3823;53.586;10.040;2024-03-23T02:27:24;8.00;1.00
7564;DHT22;3823;53.586;10.040;2024-03-23T02:29:50;7.90;1.00
7564;DHT22;3823;53.586;10.040;2024-03-23T02:32:16;7.90;1.00
7564;DHT22;3823;53.586;10.040;2024-03-23T02:34:41;7.80;1.00
7564;DHT22;3823;53.586;10.040;2024-03-23T02:37:13;7.90;1.00
7564;DHT22;3823;53.586;10.040;2024-03-23T02:39:38;7.90;1.00
7564;DHT22;3823;53.586;10.040;2024-03-23T02:42:04;7.90;1.00
7564;DHT22;3823;53.586;10.040;2024-03-23T02:44:30;7.80;1.00
7564;DHT22;3823;53.586;10.040;2024-03-23T02:46:55;7.80;1.00
7564;DHT22;3823;53.586;10.040;2024-03-23T02:49:21;7.80;1.00
7564;DHT22;3823;53.586;10.040;2024-03-23T02:51:47;7.80;1.00
7564;DHT22;3823;53.586;10.040;2024-03-23T02:54:14;7.70;1.00
7564;DHT22;3823;53.586;10.040;2024-03-23T02:56:39;7.80;1.00
7564;DHT22;3823;53.586;10.040;2024-03-23T02:59:05;7.80;1.00
7564;DHT22;3823;53.586;10.040;2024-03-23T03:01:30;7.80;1.00
7564;DHT22;3823;53.586;10.040;2024-03-23T03:03:56;7.80;1.00
7564;DHT22;3823;53.586;10.040;2024-03-23T03:06:25;7.80;1.00
7564;DHT22;3823;53.586;10.040;2024-03-23T03:08:51;7.80;1.00
7564;DHT22;3823;53.586;10.040;2024-03-23T03:11:17;7.80;1.00
7564;DHT22;3823;53.586;10.040;2024-03-23T03:13:42;7.80;1.00
7564;DHT22;3823;53.586;10.040;2024-03-23T03:16:11;7.80;1.00
7564;DHT22;3823;53.586;10.040;2024-03-23T03:18:37;7.80;1.00
7564;DHT22;3823;53.586;10.040;2024-03-23T03:21:03;7.70;1.00
7564;DHT22;3823;53.586;10.040;2024-03-23T03:23:30;7.70;1.00
7564;DHT22;3823;53.586;10.040;2024-03-23T03:25:56;7.70;1.00
7564;DHT22;3823;53.586;10.040;2024-03-23T03:28:22;7.70;1.00
7564;DHT22;3823;53.586;10.040;2024-03-23T03:30:48;7.60;1.00
7564;DHT22;3823;53.586;10.040;2024-03-23T03:33:13;7.60;1.00
7564;DHT22;3823;53.586;10.040;2024-03-23T03:35:39;7.60;1.00
7564;DHT22;3823;53.586;10.040;2024-03-23T03:38:05;7.70;1.00
7564;DHT22;3823;53.586;10.040;2024-03-23T03:40:30;7.70;1.00
7564;DHT22;3823;53.586;10.040;2024-03-23T03:42:56;7.70;1.00
7564;DHT22;3823;53.586;10.040;2024-03-23T03:45:21;7.60;1.00
7564;DHT22;3823;53.586;10.040;2024-03-23T03:47:47;7.70;1.00
7564;DHT22;3823;53.586;10.040;2024-03-23T03:50:13;7.70;1.00
7564;DHT22;3823;53.586;10.040;2024-03-23T03:52:38;7.70;1.00
7564;DHT22;3823;53.586;10.040;2024-03-23T03:55:12;7.70;1.00
7564;DHT22;3823;53.586;10.040;2024-03-23T03:57:38;7.70;1.00
7564;DHT22;3823;53.586;10.040;2024-03-23T04:00:05;7.60;1.00
7564;DHT22;3823;53.586;10.040;2024-03-23T04:02:30;7.60;1.00
7564;DHT22;3823;53.586;10.040;2024-03-23T04:04:56;7.60;1.00
7564;DHT22;3823;53.586;10.040;2024-03-23T04:07:21;7.60;1.00
7564;DHT22;3823;53.586;10.040;2024-03-23T04:09:48;7.60;1.00
7564;DHT22;3823;53.586;10.040;2024-03-23T04:12:15;7.60;1.00
7564;DHT22;3823;53.586;10.040;2024-03-23T04:14:40;7.50;1.00
7564;DHT22;3823;53.586;10.040;2024-03-23T04:17:06;7.50;1.00
7564;DHT22;3823;53.586;10.040;2024-03-23T04:19:32;7.40;1.00
7564;DHT22;3823;53.586;10.040;2024-03-23T04:21:57;7.40;1.00
7564;DHT22;3823;53.586;10.040;2024-03-23T04:24:23;7.40;1.00
7564;DHT22;3823;53.586;10.040;2024-03-23T04:26:50;7.40;1.00
7564;DHT22;3823;53.586;10.040;2024-03-23T04:29:15;7.50;1.00
7564;DHT22;3823;53.586;10.040;2024-03-23T04:31:41;7.50;1.00
7564;DHT22;3823;53.586;10.040;2024-03-23T04:34:07;7.40;1.00
7564;DHT22;3823;53.586;10.040;2024-03-23T04:36:32;7.50;1.00
7564;DHT22;3823;53.586;10.040;2024-03-23T04:38:59;7.50;1.00
7564;DHT22;3823;53.586;10.040;2024-03-23T04:41:25;7.50;1.00
7564;DHT22;3823;53.586;10.040;2024-03-23T04:43:51;7.40;1.00
7564;DHT22;3823;53.586;10.040;2024-03-23T04:46:17;7.40;1.00
7564;DHT22;3823;53.586;10.040;2024-03-23T04:48:42;7.30;1.00
7564;DHT22;3823;53.586;10.040;2024-03-23T04:51:10;7.40;1.00
7564;DHT22;3823;53.586;10.040;2024-03-23T04:53:38;7.30;1.00
7564;DHT22;3823;53.586;10.040;2024-03-23T04:56:03;7.30;1.00
7564;DHT22;3823;53.586;10.040;2024-03-23T04:58:30;7.30;1.00
7564;DHT22;3823;53.586;10.040;2024-03-23T05:00:56;7.20;1.00
7564;DHT22;3823;53.586;10.040;2024-03-23T05:03:22;7.20;1.00
7564;DHT22;3823;53.586;10.040;2024-03-23T05:05:48;7.20;1.00
7564;DHT22;3823;53.586;10.040;2024-03-23T05:08:14;7.20;1.00
7564;DHT22;3823;53.586;10.040;2024-03-23T05:10:41;7.10;1.00
7564;DHT22;3823;53.586;10.040;2024-03-23T05:13:07;7.10;1.00
7564;DHT22;3823;53.586;10.040;2024-03-23T05:15:33;7.10;1.00
7564;DHT22;3823;53.586;10.040;2024-03-23T05:17:58;7.10;1.00
7564;DHT22;3823;53.586;10.040;2024-03-23T05:20:24;7.10;1.00
7564;DHT22;3823;53.586;10.040;2024-03-23T05:22:50;7.20;1.00
7564;DHT22;3823;53.586;10.040;2024-03-23T05:25:16;7.20;1.00
7564;DHT22;3823;53.586;10.040;2024-03-23T05:27:42;7.10;1.00
7564;DHT22;3823;53.586;10.040;2024-03-23T05:30:07;7.20;1.00
7564;DHT22;3823;53.586;10.040;2024-03-23T05:32:34;7.10;1.00
7564;DHT22;3823;53.586;10.040;2024-03-23T05:35:00;7.20;1.00
7564;DHT22;3823;53.586;10.040;2024-03-23T05:37:26;7.20;1.00
7564;DHT22;3823;53.586;10.040;2024-03-23T05:39:52;7.20;1.00
7564;DHT22;3823;53.586;10.040;2024-03-23T05:42:18;7.20;1.00
7564;DHT22;3823;53.586;10.040;2024-03-23T05:44:47;7.20;1.00
7564;DHT22;3823;53.586;10.040;2024-03-23T05:47:13;7.30;1.00
7564;DHT22;3823;53.586;10.040;2024-03-23T05:49:40;7.20;1.00
7564;DHT22;3823;53.586;10.040;2024-03-23T05:52:08;7.20;1.00
7564;DHT22;3823;53.586;10.040;2024-03-23T05:54:33;7.20;1.00
7564;DHT22;3823;53.586;10.040;2024-03-23T05:56:59;7.10;1.00
7564;DHT22;3823;53.586;10.040;2024-03-23T05:59:25;7.20;1.00
7564;DHT22;3823;53.586;10.040;2024-03-23T06:01:51;7.20;1.00
7564;DHT22;3823;53.586;10.040;2024-03-23T06:04:17;7.20;1.00
7564;DHT22;3823;53.586;10.040;2024-03-23T06:06:43;7.30;1.00
7564;DHT22;3823;53.586;10.040;2024-03-23T06:09:08;7.30;1.00
7564;DHT22;3823;53.586;10.040;2024-03-23T06:11:34;7.40;1.00
7564;DHT22;3823;53.586;10.040;2024-03-23T06:13:59;7.40;1.00
7564;DHT22;3823;53.586;10.040;2024-03-23T06:16:25;7.40;1.00
7564;DHT22;3823;53.586;10.040;2024-03-23T06:18:52;7.30;1.00
7564;DHT22;3823;53.586;10.040;2024-03-23T06:21:18;7.40;1.00
7564;DHT22;3823;53.586;10.040;2024-03-23T06:23:45;7.40;1.00
7564;DHT22;3823;53.586;10.040;2024-03-23T06:26:17;7.50;1.00
7564;DHT22;3823;53.586;10.040;2024-03-23T06:28:43;7.50;1.00
7564;DHT22;3823;53.586;10.040;2024-03-23T06:31:09;7.50;1.00
7564;DHT22;3823;53.586;10.040;2024-03-23T06:33:35;7.60;1.00
7564;DHT22;3823;53.586;10.040;2024-03-23T06:36:01;7.60;1.00
7564;DHT22;3823;53.586;10.040;2024-03-23T06:38:28;7.60;1.00
7564;DHT22;3823;53.586;10.040;2024-03-23T06:40:54;7.70;1.00
7564;DHT22;3823;53.586;10.040;2024-03-23T06:43:19;7.70;1.00
7564;DHT22;3823;53.586;10.040;2024-03-23T06:45:55;7.80;1.00
7564;DHT22;3823;53.586;10.040;2024-03-23T06:48:21;7.90;1.00
7564;DHT22;3823;53.586;10.040;2024-03-23T06:50:47;7.90;1.00
7564;DHT22;3823;53.586;10.040;2024-03-23T06:53:13;7.90;1.00
7564;DHT22;3823;53.586;10.040;2024-03-23T06:55:39;7.90;1.00
7564;DHT22;3823;53.586;10.040;2024-03-23T06:58:05;7.90;1.00
7564;DHT22;3823;53.586;10.040;2024-03-23T07:00:31;7.90;1.00
7564;DHT22;3823;53.586;10.040;2024-03-23T07:02:58;7.90;1.00
7564;DHT22;3823;53.586;10.040;2024-03-23T07:05:23;8.00;1.00
7564;DHT22;3823;53.586;10.040;2024-03-23T07:07:49;8.10;1.00
7564;DHT22;3823;53.586;10.040;2024-03-23T07:10:15;8.00;1.00
7564;DHT22;3823;53.586;10.040;2024-03-23T07:12:41;8.00;1.00
7564;DHT22;3823;53.586;10.040;2024-03-23T07:15:07;8.00;1.00
7564;DHT22;3823;53.586;10.040;2024-03-23T07:17:33;8.00;1.00
7564;DHT22;3823;53.586;10.040;2024-03-23T07:20:01;8.00;1.00
7564;DHT22;3823;53.586;10.040;2024-03-23T07:22:30;8.20;1.00
7564;DHT22;3823;53.586;10.040;2024-03-23T07:24:55;8.30;1.00
7564;DHT22;3823;53.586;10.040;2024-03-23T07:27:21;8.50;1.00
7564;DHT22;3823;53.586;10.040;2024-03-23T07:29:46;8.70;99.90
7564;DHT22;3823;53.586;10.040;2024-03-23T07:32:12;8.80;99.90
7564;DHT22;3823;53.586;10.040;2024-03-23T07:34:38;9.00;99.90
7564;DHT22;3823;53.586;10.040;2024-03-23T07:37:03;9.20;99.90
7564;DHT22;3823;53.586;10.040;2024-03-23T07:39:29;9.30;99.90
7564;DHT22;3823;53.586;10.040;2024-03-23T07:41:54;9.30;99.90
7564;DHT22;3823;53.586;10.040;2024-03-23T07:44:20;9.30;99.90
7564;DHT22;3823;53.586;10.040;2024-03-23T07:46:46;9.30;99.90
7564;DHT22;3823;53.586;10.040;2024-03-23T07:49:11;9.30;99.90
7564;DHT22;3823;53.586;10.040;2024-03-23T07:51:37;9.20;99.90
7564;DHT22;3823;53.586;10.040;2024-03-23T07:54:04;9.10;99.90
7564;DHT22;3823;53.586;10.040;2024-03-23T07:56:30;9.20;99.90
7564;DHT22;3823;53.586;10.040;2024-03-23T07:58:56;9.50;99.90
7564;DHT22;3823;53.586;10.040;2024-03-23T08:01:22;9.90;99.90
7564;DHT22;3823;53.586;10.040;2024-03-23T08:03:47;10.20;75.70
7564;DHT22;3823;53.586;10.040;2024-03-23T08:06:16;10.70;16.50
7564;DHT22;3823;53.586;10.040;2024-03-23T08:08:46;10.90;1.00
7564;DHT22;3823;53.586;10.040;2024-03-23T08:11:12;11.10;1.00
7564;DHT22;3823;53.586;10.040;2024-03-23T08:13:39;11.30;1.00
7564;DHT22;3823;53.586;10.040;2024-03-23T08:16:05;11.40;1.00
7564;DHT22;3823;53.586;10.040;2024-03-23T08:18:31;11.50;1.00
7564;DHT22;3823;53.586;10.040;2024-03-23T08:20:57;11.70;1.00
7564;DHT22;3823;53.586;10.040;2024-03-23T08:23:28;11.80;1.00
7564;DHT22;3823;53.586;10.040;2024-03-23T08:26:04;12.10;1.00
7564;DHT22;3823;53.586;10.040;2024-03-23T08:28:30;12.30;1.00
7564;DHT22;3823;53.586;10.040;2024-03-23T08:30:56;12.50;1.00
7564;DHT22;3823;53.586;10.040;2024-03-23T08:33:23;12.60;1.00
7564;DHT22;3823;53.586;10.040;2024-03-23T08:35:58;12.80;1.00
7564;DHT22;3823;53.586;10.040;2024-03-23T08:38:25;12.80;1.00
7564;DHT22;3823;53.586;10.040;2024-03-23T08:41:17;12.90;1.00
7564;DHT22;3823;53.586;10.040;2024-03-23T08:43:42;12.80;1.00
7564;DHT22;3823;53.586;10.040;2024-03-23T08:48:41;13.00;1.00
7564;DHT22;3823;53.586;10.040;2024-03-23T08:51:09;12.80;1.00
7564;DHT22;3823;53.586;10.040;2024-03-23T08:53:36;12.90;1.00
7564;DHT22;3823;53.586;10.040;2024-03-23T08:56:02;12.80;1.00
7564;DHT22;3823;53.586;10.040;2024-03-23T08:58:29;12.60;1.00
7564;DHT22;3823;53.586;10.040;2024-03-23T09:00:57;12.60;1.00
7564;DHT22;3823;53.586;10.040;2024-03-23T09:03:26;12.80;1.00
7564;DHT22;3823;53.586;10.040;2024-03-23T09:05:52;13.00;1.00
7564;DHT22;3823;53.586;10.040;2024-03-23T09:08:18;13.30;1.00
7564;DHT22;3823;53.586;10.040;2024-03-23T09:10:44;13.40;1.00
7564;DHT22;3823;53.586;10.040;2024-03-23T09:13:10;13.40;1.00
7564;DHT22;3823;53.586;10.040;2024-03-23T09:15:37;13.40;1.00
7564;DHT22;3823;53.586;10.040;2024-03-23T09:18:03;13.60;1.00
7564;DHT22;3823;53.586;10.040;2024-03-23T09:20:32;13.90;1.00
7564;DHT22;3823;53.586;10.040;2024-03-23T09:22:58;13.90;1.00
7564;DHT22;3823;53.586;10.040;2024-03-23T09:25:23;13.90;1.00
7564;DHT22;3823;53.586;10.040;2024-03-23T09:27:50;13.90;1.00
7564;DHT22;3823;53.586;10.040;2024-03-23T09:30:16;13.80;1.00
7564;DHT22;3823;53.586;10.040;2024-03-23T09:32:43;13.80;1.00
7564;DHT22;3823;53.586;10.040;2024-03-23T09:35:09;13.70;1.00
7564;DHT22;3823;53.586;10.040;2024-03-23T09:37:36;13.20;1.00
7564;DHT22;3823;53.586;10.040;2024-03-23T09:40:02;12.70;1.00
7564;DHT22;3823;53.586;10.040;2024-03-23T09:42:28;12.40;1.00
7564;DHT22;3823;53.586;10.040;2024-03-23T09:44:54;12.30;1.00
7564;DHT22;3823;53.586;10.040;2024-03-23T09:47:24;12.70;1.00
7564;DHT22;3823;53.586;10.040;2024-03-23T09:49:50;12.50;1.00
7564;DHT22;3823;53.586;10.040;2024-03-23T09:52:16;12.30;1.00
7564;DHT22;3823;53.586;10.040;2024-03-23T09:54:42;12.00;1.00
7564;DHT22;3823;53.586;10.040;2024-03-23T09:57:08;12.00;1.00
7564;DHT22;3823;53.586;10.040;2024-03-23T09:59:33;12.20;1.00
7564;DHT22;3823;53.586;10.040;2024-03-23T10:02:03;12.70;1.00
7564;DHT22;3823;53.586;10.040;2024-03-23T10:04:47;12.90;1.00
7564;DHT22;3823;53.586;10.040;2024-03-23T10:07:14;12.60;1.00
7564;DHT22;3823;53.586;10.040;2024-03-23T10:09:40;12.20;1.00
7564;DHT22;3823;53.586;10.040;2024-03-23T10:12:13;11.80;1.00
7564;DHT22;3823;53.586;10.040;2024-03-23T10:14:40;11.60;1.00
7564;DHT22;3823;53.586;10.040;2024-03-23T10:17:14;11.40;1.00
7564;DHT22;3823;53.586;10.040;2024-03-23T10:19:47;11.40;1.00
7564;DHT22;3823;53.586;10.040;2024-03-23T10:22:18;11.90;1.00
7564;DHT22;3823;53.586;10.040;2024-03-23T10:24:44;12.10;1.00
7564;DHT22;3823;53.586;10.040;2024-03-23T10:27:15;12.50;1.00
7564;DHT22;3823;53.586;10.040;2024-03-23T10:29:43;12.80;1.00
7564;DHT22;3823;53.586;10.040;2024-03-23T10:32:11;12.90;1.00
7564;DHT22;3823;53.586;10.040;2024-03-23T10:34:37;12.90;1.00
7564;DHT22;3823;53.586;10.040;2024-03-23T10:37:03;12.70;1.00
7564;DHT22;3823;53.586;10.040;2024-03-23T10:39:33;12.50;1.00
7564;DHT22;3823;53.586;10.040;2024-03-23T10:42:05;12.30;1.00
7564;DHT22;3823;53.586;10.040;2024-03-23T10:44:32;12.00;1.00
7564;DHT22;3823;53.586;10.040;2024-03-23T10:46:58;11.90;1.00
7564;DHT22;3823;53.586;10.040;2024-03-23T10:49:35;11.80;1.00
7564;DHT22;3823;53.586;10.040;2024-03-23T10:52:05;11.60;1.00
7564;DHT22;3823;53.586;10.040;2024-03-23T10:54:32;11.30;1.00
7564;DHT22;3823;53.586;10.040;2024-03-23T10:57:11;11.50;1.00
7564;DHT22;3823;53.586;10.040;2024-03-23T10:59:38;12.20;1.00
7564;DHT22;3823;53.586;10.040;2024-03-23T11:02:05;12.40;1.00
7564;DHT22;3823;53.586;10.040;2024-03-23T11:04:36;12.40;1.00
7564;DHT22;3823;53.586;10.040;2024-03-23T11:09:53;11.80;1.00
7564;DHT22;3823;53.586;10.040;2024-03-23T11:15:04;12.30;1.00
7564;DHT22;3823;53.586;10.040;2024-03-23T11:17:30;12.60;1.00
7564;DHT22;3823;53.586;10.040;2024-03-23T11:19:58;12.90;1.00
7564;DHT22;3823;53.586;10.040;2024-03-23T11:27:44;13.40;1.00
7564;DHT22;3823;53.586;10.040;2024-03-23T11:30:19;13.60;1.00
7564;DHT22;3823;53.586;10.040;2024-03-23T11:32:46;13.70;1.00
7564;DHT22;3823;53.586;10.040;2024-03-23T11:38:12;13.40;1.00
7564;DHT22;3823;53.586;10.040;2024-03-23T11:40:46;13.20;1.00
7564;DHT22;3823;53.586;10.040;2024-03-23T11:43:15;13.10;1.00
7564;DHT22;3823;53.586;10.040;2024-03-23T11:45:49;13.20;1.00
7564;DHT22;3823;53.586;10.040;2024-03-23T11:48:22;13.30;1.00
7564;DHT22;3823;53.586;10.040;2024-03-23T11:50:50;13.40;1.00
7564;DHT22;3823;53.586;10.040;2024-03-23T11:53:20;13.40;1.00
7564;DHT22;3823;53.586;10.040;2024-03-23T11:55:56;13.50;1.00
7564;DHT22;3823;53.586;10.040;2024-03-23T11:58:24;13.60;1.00
7564;DHT22;3823;53.586;10.040;2024-03-23T12:01:00;13.50;1.00
7564;DHT22;3823;53.586;10.040;2024-03-23T12:03:30;13.30;1.00
7564;DHT22;3823;53.586;10.040;2024-03-23T12:06:01;13.10;1.00
7564;DHT22;3823;53.586;10.040;2024-03-23T12:08:35;12.80;1.00
7564;DHT22;3823;53.586;10.040;2024-03-23T12:11:14;12.40;1.00
7564;DHT22;3823;53.586;10.040;2024-03-23T12:13:42;11.70;1.00
7564;DHT22;3823;53.586;10.040;2024-03-23T12:18:35;10.70;1.00
7564;DHT22;3823;53.586;10.040;2024-03-23T12:21:01;10.50;1.00
7564;DHT22;3823;53.586;10.040;2024-03-23T12:23:26;10.50;1.00
7564;DHT22;3823;53.586;10.040;2024-03-23T12:25:52;10.60;1.00
7564;DHT22;3823;53.586;10.040;2024-03-23T12:28:17;10.80;1.00
7564;DHT22;3823;53.586;10.040;2024-03-23T12:30:43;10.80;1.00
7564;DHT22;3823;53.586;10.040;2024-03-23T12:33:09;10.60;1.00
7564;DHT22;3823;53.586;10.040;2024-03-23T12:35:34;10.80;1.00
7564;DHT22;3823;53.586;10.040;2024-03-23T12:38:00;11.00;1.00
7564;DHT22;3823;53.586;10.040;2024-03-23T12:40:26;11.30;1.00
7564;DHT22;3823;53.586;10.040;2024-03-23T12:42:55;11.40;1.00
7564;DHT22;3823;53.586;10.040;2024-03-23T12:45:21;11.40;1.00
7564;DHT22;3823;53.586;10.040;2024-03-23T12:47:47;11.10;1.00
7564;DHT22;3823;53.586;10.040;2024-03-23T12:50:13;10.50;1.00
7564;DHT22;3823;53.586;10.040;2024-03-23T12:52:38;10.00;1.00
7564;DHT22;3823;53.586;10.040;2024-03-23T12:55:04;9.80;1.00
7564;DHT22;3823;53.586;10.040;2024-03-23T12:57:31;9.60;25.80
7564;DHT22;3823;53.586;10.040;2024-03-23T12:59:57;9.50;1.00
7564;DHT22;3823;53.586;10.040;2024-03-23T13:02:23;9.30;20.90
7564;DHT22;3823;53.586;10.040;2024-03-23T13:04:53;9.20;1.00
7564;DHT22;3823;53.586;10.040;2024-03-23T13:07:19;9.20;1.00
7564;DHT22;3823;53.586;10.040;2024-03-23T13:09:45;9.10;1.00
7564;DHT22;3823;53.586;10.040;2024-03-23T13:12:12;9.10;1.00
7564;DHT22;3823;53.586;10.040;2024-03-23T13:14:38;9.10;1.00
7564;DHT22;3823;53.586;10.040;2024-03-23T13:17:04;9.20;1.00
7564;DHT22;3823;53.586;10.040;2024-03-23T13:19:30;9.20;23.00
7564;DHT22;3823;53.586;10.040;2024-03-23T13:22:00;9.40;1.00
7564;DHT22;3823;53.586;10.040;2024-03-23T13:24:27;9.50;1.00
7564;DHT22;3823;53.586;10.040;2024-03-23T13:26:53;9.50;1.00
7564;DHT22;3823;53.586;10.040;2024-03-23T13:29:20;9.60;1.00
7564;DHT22;3823;53.586;10.040;2024-03-23T13:31:46;9.60;1.00
7564;DHT22;3823;53.586;10.040;2024-03-23T13:34:12;9.60;1.00
7564;DHT22;3823;53.586;10.040;2024-03-23T13:36:40;9.60;1.00
7564;DHT22;3823;53.586;10.040;2024-03-23T13:39:07;9.60;1.00
7564;DHT22;3823;53.586;10.040;2024-03-23T13:41:39;9.70;1.00
7564;DHT22;3823;53.586;10.040;2024-03-23T13:44:09;9.70;1.00
7564;DHT22;3823;53.586;10.040;2024-03-23T13:46:38;9.80;1.00
7564;DHT22;3823;53.586;10.040;2024-03-23T13:49:05;9.80;1.00
7564;DHT22;3823;53.586;10.040;2024-03-23T13:51:31;9.90;1.00
7564;DHT22;3823;53.586;10.040;2024-03-23T13:53:57;10.00;1.00
7564;DHT22;3823;53.586;10.040;2024-03-23T13:56:29;10.10;1.00
7564;DHT22;3823;53.586;10.040;2024-03-23T13:58:57;10.20;1.00
7564;DHT22;3823;53.586;10.040;2024-03-23T14:01:23;10.30;1.00
7564;DHT22;3823;53.586;10.040;2024-03-23T14:03:49;10.30;1.00
7564;DHT22;3823;53.586;10.040;2024-03-23T14:06:15;10.30;1.00
7564;DHT22;3823;53.586;10.040;2024-03-23T14:08:41;10.30;1.00
7564;DHT22;3823;53.586;10.040;2024-03-23T14:11:09;10.30;1.00
7564;DHT22;3823;53.586;10.040;2024-03-23T14:13:35;10.30;1.00
7564;DHT22;3823;53.586;10.040;2024-03-23T14:16:01;10.40;1.00
7564;DHT22;3823;53.586;10.040;2024-03-23T14:18:27;10.40;1.00
7564;DHT22;3823;53.586;10.040;2024-03-23T14:20:57;10.40;1.00
7564;DHT22;3823;53.586;10.040;2024-03-23T14:23:30;10.40;1.00
7564;DHT22;3823;53.586;10.040;2024-03-23T14:25:59;10.50;1.00
7564;DHT22;3823;53.586;10.040;2024-03-23T14:28:25;10.50;1.00
7564;DHT22;3823;53.586;10.040;2024-03-23T14:30:52;10.60;1.00
7564;DHT22;3823;53.586;10.040;2024-03-23T14:33:18;10.80;1.00
7564;DHT22;3823;53.586;10.040;2024-03-23T14:35:56;10.70;1.00
7564;DHT22;3823;53.586;10.040;2024-03-23T14:38:23;10.60;1.00
7564;DHT22;3823;53.586;10.040;2024-03-23T14:40:48;10.70;1.00
7564;DHT22;3823;53.586;10.040;2024-03-23T14:43:14;10.60;1.00
7564;DHT22;3823;53.586;10.040;2024-03-23T14:46:06;10.50;1.00
7564;DHT22;3823;53.586;10.040;2024-03-23T14:48:32;10.60;1.00
7564;DHT22;3823;53.586;10.040;2024-03-23T14:50:58;10.70;1.00
7564;DHT22;3823;53.586;10.040;2024-03-23T14:53:25;10.80;1.00
7564;DHT22;3823;53.586;10.040;2024-03-23T14:55:51;10.80;1.00
7564;DHT22;3823;53.586;10.040;2024-03-23T14:58:19;10.70;1.00
7564;DHT22;3823;53.586;10.040;2024-03-23T15:00:44;10.40;1.00
7564;DHT22;3823;53.586;10.040;2024-03-23T15:03:10;10.40;1.00
7564;DHT22;3823;53.586;10.040;2024-03-23T15:05:36;10.10;1.00
7564;DHT22;3823;53.586;10.040;2024-03-23T15:08:02;9.90;1.00
7564;DHT22;3823;53.586;10.040;2024-03-23T15:10:28;9.70;1.00
7564;DHT22;3823;53.586;10.040;2024-03-23T15:12:54;9.60;1.00
7564;DHT22;3823;53.586;10.040;2024-03-23T15:15:20;9.50;1.00
7564;DHT22;3823;53.586;10.040;2024-03-23T15:17:46;9.50;1.00
7564;DHT22;3823;53.586;10.040;2024-03-23T15:20:11;9.40;1.00
7564;DHT22;3823;53.586;10.040;2024-03-23T15:22:37;9.40;1.00
7564;DHT22;3823;53.586;10.040;2024-03-23T15:25:03;9.30;1.00
7564;DHT22;3823;53.586;10.040;2024-03-23T15:27:29;9.20;1.00
7564;DHT22;3823;53.586;10.040;2024-03-23T15:29:56;9.30;1.00
7564;DHT22;3823;53.586;10.040;2024-03-23T15:32:23;9.40;1.00
7564;DHT22;3823;53.586;10.040;2024-03-23T15:34:48;9.50;1.00
7564;DHT22;3823;53.586;10.040;2024-03-23T15:37:14;9.50;1.00
7564;DHT22;3823;53.586;10.040;2024-03-23T15:39:40;9.50;1.00
7564;DHT22;3823;53.586;10.040;2024-03-23T15:42:09;9.40;1.00
7564;DHT22;3823;53.586;10.040;2024-03-23T15:44:35;9.50;1.00
7564;DHT22;3823;53.586;10.040;2024-03-23T15:47:01;9.50;1.00
7564;DHT22;3823;53.586;10.040;2024-03-23T15:49:27;9.50;1.00
7564;DHT22;3823;53.586;10.040;2024-03-23T15:51:52;9.50;1.00
7564;DHT22;3823;53.586;10.040;2024-03-23T15:54:19;9.50;1.00
7564;DHT22;3823;53.586;10.040;2024-03-23T15:56:45;9.50;1.00
7564;DHT22;3823;53.586;10.040;2024-03-23T15:59:11;9.50;1.00
7564;DHT22;3823;53.586;10.040;2024-03-23T16:01:36;9.50;1.00
7564;DHT22;3823;53.586;10.040;2024-03-23T16:04:03;9.50;1.00
7564;DHT22;3823;53.586;10.040;2024-03-23T16:06:29;9.50;1.00
7564;DHT22;3823;53.586;10.040;2024-03-23T16:08:55;9.60;1.00
7564;DHT22;3823;53.586;10.040;2024-03-23T16:11:20;9.50;1.00
7564;DHT22;3823;53.586;10.040;2024-03-23T16:13:46;9.50;1.00
7564;DHT22;3823;53.586;10.040;2024-03-23T16:16:12;9.60;1.00
7564;DHT22;3823;53.586;10.040;2024-03-23T16:18:38;9.50;1.00
7564;DHT22;3823;53.586;10.040;2024-03-23T16:21:07;9.40;1.00
7564;DHT22;3823;53.586;10.040;2024-03-23T16:23:36;9.40;1.00
7564;DHT22;3823;53.586;10.040;2024-03-23T16:26:10;9.40;1.00
7564;DHT22;3823;53.586;10.040;2024-03-23T16:28:38;9.30;1.00
7564;DHT22;3823;53.586;10.040;2024-03-23T16:31:08;9.10;1.00
7564;DHT22;3823;53.586;10.040;2024-03-23T16:33:35;9.10;1.00
7564;DHT22;3823;53.586;10.040;2024-03-23T16:36:02;9.00;1.00
7564;DHT22;3823;53.586;10.040;2024-03-23T16:38:33;9.10;1.00
7564;DHT22;3823;53.586;10.040;2024-03-23T16:41:10;9.00;1.00
7564;DHT22;3823;53.586;10.040;2024-03-23T16:43:39;9.00;1.00
7564;DHT22;3823;53.586;10.040;2024-03-23T16:46:07;9.10;1.00
7564;DHT22;3823;53.586;10.040;2024-03-23T16:48:36;9.10;1.00
7564;DHT22;3823;53.586;10.040;2024-03-23T16:51:02;9.00;1.00
7564;DHT22;3823;53.586;10.040;2024-03-23T16:53:32;8.90;1.00
7564;DHT22;3823;53.586;10.040;2024-03-23T16:55:59;8.90;1.00
7564;DHT22;3823;53.586;10.040;2024-03-23T16:58:25;8.80;1.00
7564;DHT22;3823;53.586;10.040;2024-03-23T17:00:51;8.80;1.00
7564;DHT22;3823;53.586;10.040;2024-03-23T17:03:19;8.90;1.00
7564;DHT22;3823;53.586;10.040;2024-03-23T17:05:48;8.90;1.00
7564;DHT22;3823;53.586;10.040;2024-03-23T17:08:15;9.00;1.00
7564;DHT22;3823;53.586;10.040;2024-03-23T17:10:40;9.00;1.00
7564;DHT22;3823;53.586;10.040;2024-03-23T17:13:06;8.90;1.00
7564;DHT22;3823;53.586;10.040;2024-03-23T17:15:32;8.90;1.00
7564;DHT22;3823;53.586;10.040;2024-03-23T17:17:58;8.90;1.00
7564;DHT22;3823;53.586;10.040;2024-03-23T17:20:24;8.70;1.00
7564;DHT22;3823;53.586;10.040;2024-03-23T17:22:56;8.70;1.00